Terminal Aerodrome Forecast
Issued by NWS Glasgow, MT

Home | Current Version | Previous Version | Text Only | Print | Product List | Glossary On
Versions: 1 2 3 4 5 6 7 8 9 10 11 12 13
829
FTUS45 KGGW 140520
TAFGGW
TAF
KGGW 140520Z 1406/1506 31014G23KT P6SM SCT100
     FM140800 32014G23KT P6SM BKN030
     FM141100 32014KT P6SM BKN025
     FM142000 29009KT P6SM SCT030
     FM150300 22004KT P6SM BKN130=

USA.gov is the U.S. government's official web portal to all federal, state and local government web resources and services.